sensor_id;sensor_type;location;lat;lon;timestamp;pressure;altitude;pressure_sealevel;temperature;humidity
64713;BME280;51140;45.340;5.980;2023-01-31T00:01:34;99121.00;;;-0.89;100.00
64713;BME280;51140;45.340;5.980;2023-01-31T00:04:02;99138.03;;;-0.92;100.00
64713;BME280;51140;45.340;5.980;2023-01-31T00:06:30;99127.94;;;-0.79;100.00
64713;BME280;51140;45.340;5.980;2023-01-31T00:08:57;99122.84;;;-0.76;100.00
64713;BME280;51140;45.340;5.980;2023-01-31T00:11:25;99131.41;;;-0.71;100.00
64713;BME280;51140;45.340;5.980;2023-01-31T00:13:51;99115.28;;;-0.64;100.00
64713;BME280;51140;45.340;5.980;2023-01-31T00:16:17;99113.53;;;-0.68;100.00
64713;BME280;51140;45.340;5.980;2023-01-31T00:18:43;99093.94;;;-0.63;100.00
64713;BME280;51140;45.340;5.980;2023-01-31T00:21:10;99095.63;;;-0.66;100.00
64713;BME280;51140;45.340;5.980;2023-01-31T00:23:36;99083.69;;;-0.67;100.00
64713;BME280;51140;45.340;5.980;2023-01-31T00:26:12;99087.06;;;-0.70;100.00
64713;BME280;51140;45.340;5.980;2023-01-31T00:28:39;99083.69;;;-0.69;100.00
64713;BME280;51140;45.340;5.980;2023-01-31T00:31:05;99081.94;;;-0.71;100.00
64713;BME280;51140;45.340;5.980;2023-01-31T00:33:33;99082.78;;;-0.74;100.00
64713;BME280;51140;45.340;5.980;2023-01-31T00:36:02;99075.94;;;-0.75;100.00
64713;BME280;51140;45.340;5.980;2023-01-31T00:38:27;99079.34;;;-0.77;100.00
64713;BME280;51140;45.340;5.980;2023-01-31T00:40:54;99077.56;;;-0.84;100.00
64713;BME280;51140;45.340;5.980;2023-01-31T00:43:20;99083.50;;;-0.87;100.00
64713;BME280;51140;45.340;5.980;2023-01-31T00:45:45;99081.03;;;-0.79;100.00
64713;BME280;51140;45.340;5.980;2023-01-31T00:48:10;99078.50;;;-0.78;100.00
64713;BME280;51140;45.340;5.980;2023-01-31T00:50:36;99066.47;;;-0.85;100.00
64713;BME280;51140;45.340;5.980;2023-01-31T00:53:02;99069.00;;;-0.88;100.00
64713;BME280;51140;45.340;5.980;2023-01-31T00:55:27;99071.59;;;-0.85;100.00
64713;BME280;51140;45.340;5.980;2023-01-31T00:57:52;99077.50;;;-0.89;100.00
64713;BME280;51140;45.340;5.980;2023-01-31T01:00:18;99071.53;;;-0.91;100.00
64713;BME280;51140;45.340;5.980;2023-01-31T01:02:43;99068.97;;;-0.92;100.00
64713;BME280;51140;45.340;5.980;2023-01-31T01:05:09;99067.19;;;-1.00;100.00
64713;BME280;51140;45.340;5.980;2023-01-31T01:07:34;99073.16;;;-0.99;100.00
64713;BME280;51140;45.340;5.980;2023-01-31T01:10:00;99079.13;;;-0.99;100.00
64713;BME280;51140;45.340;5.980;2023-01-31T01:12:25;99080.78;;;-1.05;100.00
64713;BME280;51140;45.340;5.980;2023-01-31T01:14:51;99087.53;;;-1.15;100.00
64713;BME280;51140;45.340;5.980;2023-01-31T01:17:16;99106.19;;;-1.20;100.00
64713;BME280;51140;45.340;5.980;2023-01-31T01:19:41;99103.66;;;-1.19;100.00
64713;BME280;51140;45.340;5.980;2023-01-31T01:22:07;99115.75;;;-1.04;100.00
64713;BME280;51140;45.340;5.980;2023-01-31T01:24:32;99105.56;;;-1.00;100.00
64713;BME280;51140;45.340;5.980;2023-01-31T01:26:57;99112.28;;;-1.09;100.00
64713;BME280;51140;45.340;5.980;2023-01-31T01:29:23;99125.91;;;-1.12;100.00
64713;BME280;51140;45.340;5.980;2023-01-31T01:31:49;99123.38;;;-1.07;100.00
64713;BME280;51140;45.340;5.980;2023-01-31T01:34:15;99120.84;;;-1.06;100.00
64713;BME280;51140;45.340;5.980;2023-01-31T01:36:41;99133.53;;;-1.16;100.00
64713;BME280;51140;45.340;5.980;2023-01-31T01:39:08;99142.75;;;-1.26;100.00
64713;BME280;51140;45.340;5.980;2023-01-31T01:41:34;99151.22;;;-1.32;100.00
64713;BME280;51140;45.340;5.980;2023-01-31T01:44:02;99154.56;;;-1.37;100.00
64713;BME280;51140;45.340;5.980;2023-01-31T01:46:42;99157.94;;;-1.41;100.00
64713;BME280;51140;45.340;5.980;2023-01-31T01:49:23;99179.19;;;-1.44;100.00
64713;BME280;51140;45.340;5.980;2023-01-31T01:51:51;99186.78;;;-1.50;100.00
64713;BME280;51140;45.340;5.980;2023-01-31T01:54:24;99199.47;;;-1.58;100.00
64713;BME280;51140;45.340;5.980;2023-01-31T01:56:55;99208.91;;;-1.53;100.00
64713;BME280;51140;45.340;5.980;2023-01-31T01:59:28;99209.84;;;-1.45;100.00
64713;BME280;51140;45.340;5.980;2023-01-31T02:01:55;99210.84;;;-1.33;100.00
64713;BME280;51140;45.340;5.980;2023-01-31T02:04:25;99214.97;;;-1.44;100.00
64713;BME280;51140;45.340;5.980;2023-01-31T02:06:51;99220.94;;;-1.43;100.00
64713;BME280;51140;45.340;5.980;2023-01-31T02:09:39;99227.84;;;-1.36;100.00
64713;BME280;51140;45.340;5.980;2023-01-31T02:12:07;99226.06;;;-1.42;100.00
64713;BME280;51140;45.340;5.980;2023-01-31T02:14:34;99226.00;;;-1.48;100.00
64713;BME280;51140;45.340;5.980;2023-01-31T02:17:00;99231.88;;;-1.53;100.00
64713;BME280;51140;45.340;5.980;2023-01-31T02:22:40;99242.28;;;-1.41;100.00
64713;BME280;51140;45.340;5.980;2023-01-31T02:30:58;99238.84;;;-1.42;100.00
64713;BME280;51140;45.340;5.980;2023-01-31T02:33:39;99224.34;;;-1.44;100.00
64713;BME280;51140;45.340;5.980;2023-01-31T02:36:33;99233.72;;;-1.45;100.00
64713;BME280;51140;45.340;5.980;2023-01-31T02:39:08;99233.81;;;-1.37;100.00
64713;BME280;51140;45.340;5.980;2023-01-31T02:41:59;99225.28;;;-1.36;100.00
64713;BME280;51140;45.340;5.980;2023-01-31T02:44:36;99217.66;;;-1.35;100.00
64713;BME280;51140;45.340;5.980;2023-01-31T02:52:52;99226.88;;;-1.46;100.00
64713;BME280;51140;45.340;5.980;2023-01-31T02:58:10;99217.75;;;-1.27;100.00
64713;BME280;51140;45.340;5.980;2023-01-31T03:00:40;99222.13;;;-1.20;100.00
64713;BME280;51140;45.340;5.980;2023-01-31T03:03:12;99221.22;;;-1.20;100.00
64713;BME280;51140;45.340;5.980;2023-01-31T03:05:42;99222.16;;;-1.15;100.00
64713;BME280;51140;45.340;5.980;2023-01-31T03:08:09;99214.56;;;-1.09;100.00
64713;BME280;51140;45.340;5.980;2023-01-31T03:11:01;99210.34;;;-1.06;100.00
64713;BME280;51140;45.340;5.980;2023-01-31T03:16:27;99206.94;;;-1.06;100.00
64713;BME280;51140;45.340;5.980;2023-01-31T03:19:19;99200.94;;;-1.08;100.00
64713;BME280;51140;45.340;5.980;2023-01-31T03:22:16;99205.25;;;-1.03;100.00
64713;BME280;51140;45.340;5.980;2023-01-31T03:24:46;99197.66;;;-0.95;100.00
64713;BME280;51140;45.340;5.980;2023-01-31T03:27:13;99195.16;;;-0.90;100.00
64713;BME280;51140;45.340;5.980;2023-01-31T03:29:40;99206.25;;;-0.88;100.00
64713;BME280;51140;45.340;5.980;2023-01-31T03:32:19;99201.97;;;-0.92;100.00
64713;BME280;51140;45.340;5.980;2023-01-31T03:34:47;99213.00;;;-0.95;100.00
64713;BME280;51140;45.340;5.980;2023-01-31T03:37:30;99194.34;;;-0.88;100.00
64713;BME280;51140;45.340;5.980;2023-01-31T03:40:29;99184.06;;;-0.92;100.00
64713;BME280;51140;45.340;5.980;2023-01-31T03:43:01;99191.72;;;-0.94;100.00
64713;BME280;51140;45.340;5.980;2023-01-31T03:45:34;99194.28;;;-0.94;100.00
64713;BME280;51140;45.340;5.980;2023-01-31T03:48:03;99197.69;;;-0.92;100.00
64713;BME280;51140;45.340;5.980;2023-01-31T03:50:43;99199.47;;;-0.86;100.00
64713;BME280;51140;45.340;5.980;2023-01-31T03:53:37;99205.53;;;-0.80;100.00
64713;BME280;51140;45.340;5.980;2023-01-31T03:56:17;99210.59;;;-0.81;100.00
64713;BME280;51140;45.340;5.980;2023-01-31T03:58:51;99222.50;;;-0.83;100.00
64713;BME280;51140;45.340;5.980;2023-01-31T04:01:21;99231.16;;;-0.74;100.00
64713;BME280;51140;45.340;5.980;2023-01-31T04:04:09;99244.09;;;-0.61;100.00
64713;BME280;51140;45.340;5.980;2023-01-31T04:06:36;99240.78;;;-0.48;100.00
64713;BME280;51140;45.340;5.980;2023-01-31T04:09:01;99243.41;;;-0.42;100.00
64713;BME280;51140;45.340;5.980;2023-01-31T04:11:27;99240.91;;;-0.39;100.00
64713;BME280;51140;45.340;5.980;2023-01-31T04:13:53;99238.38;;;-0.38;100.00
64713;BME280;51140;45.340;5.980;2023-01-31T04:16:18;99236.69;;;-0.33;100.00
64713;BME280;51140;45.340;5.980;2023-01-31T04:18:44;99245.25;;;-0.30;100.00
64713;BME280;51140;45.340;5.980;2023-01-31T04:21:09;99230.75;;;-0.32;100.00
64713;BME280;51140;45.340;5.980;2023-01-31T04:23:35;99222.16;;;-0.35;100.00
64713;BME280;51140;45.340;5.980;2023-01-31T04:26:01;99222.16;;;-0.38;100.00
64713;BME280;51140;45.340;5.980;2023-01-31T04:28:26;99228.06;;;-0.42;100.00
64713;BME280;51140;45.340;5.980;2023-01-31T04:30:53;99219.50;;;-0.44;100.00
64713;BME280;51140;45.340;5.980;2023-01-31T04:33:19;99219.50;;;-0.44;100.00
64713;BME280;51140;45.340;5.980;2023-01-31T04:35:44;99231.44;;;-0.45;100.00
64713;BME280;51140;45.340;5.980;2023-01-31T04:38:10;99224.59;;;-0.49;100.00
64713;BME280;51140;45.340;5.980;2023-01-31T04:40:35;99216.03;;;-0.49;100.00
64713;BME280;51140;45.340;5.980;2023-01-31T04:43:00;99211.78;;;-0.49;100.00
64713;BME280;51140;45.340;5.980;2023-01-31T04:45:26;99212.66;;;-0.47;100.00
64713;BME280;51140;45.340;5.980;2023-01-31T04:47:51;99204.13;;;-0.46;100.00
64713;BME280;51140;45.340;5.980;2023-01-31T04:50:16;99201.59;;;-0.41;100.00
64713;BME280;51140;45.340;5.980;2023-01-31T04:52:42;99196.53;;;-0.40;100.00
64713;BME280;51140;45.340;5.980;2023-01-31T04:55:07;99183.75;;;-0.38;100.00
64713;BME280;51140;45.340;5.980;2023-01-31T04:57:33;99184.59;;;-0.38;100.00
64713;BME280;51140;45.340;5.980;2023-01-31T04:59:58;99181.25;;;-0.32;100.00
64713;BME280;51140;45.340;5.980;2023-01-31T05:02:23;99190.63;;;-0.31;100.00
64713;BME280;51140;45.340;5.980;2023-01-31T05:04:49;99188.03;;;-0.37;100.00
64713;BME280;51140;45.340;5.980;2023-01-31T05:07:14;99188.91;;;-0.35;100.00
64713;BME280;51140;45.340;5.980;2023-01-31T05:09:40;99186.31;;;-0.38;100.00
64713;BME280;51140;45.340;5.980;2023-01-31T05:12:07;99196.53;;;-0.40;100.00
64713;BME280;51140;45.340;5.980;2023-01-31T05:14:33;99201.56;;;-0.47;100.00
64713;BME280;51140;45.340;5.980;2023-01-31T05:16:58;99218.59;;;-0.49;100.00
64713;BME280;51140;45.340;5.980;2023-01-31T05:19:24;99234.75;;;-0.55;100.00
64713;BME280;51140;45.340;5.980;2023-01-31T05:21:49;99230.47;;;-0.57;100.00
64713;BME280;51140;45.340;5.980;2023-01-31T05:24:24;99245.84;;;-0.57;100.00
64713;BME280;51140;45.340;5.980;2023-01-31T05:26:50;99252.69;;;-0.55;100.00
64713;BME280;51140;45.340;5.980;2023-01-31T05:29:17;99253.56;;;-0.51;100.00
64713;BME280;51140;45.340;5.980;2023-01-31T05:31:43;99256.13;;;-0.50;100.00
64713;BME280;51140;45.340;5.980;2023-01-31T05:34:08;99255.28;;;-0.49;100.00
64713;BME280;51140;45.340;5.980;2023-01-31T05:36:35;99248.50;;;-0.47;100.00
64713;BME280;51140;45.340;5.980;2023-01-31T05:39:01;99255.34;;;-0.44;100.00
64713;BME280;51140;45.340;5.980;2023-01-31T05:41:26;99236.56;;;-0.46;100.00
64713;BME280;51140;45.340;5.980;2023-01-31T05:43:52;99242.50;;;-0.47;100.00
64713;BME280;51140;45.340;5.980;2023-01-31T05:46:17;99245.06;;;-0.49;100.00
64713;BME280;51140;45.340;5.980;2023-01-31T05:48:42;99236.53;;;-0.48;100.00
64713;BME280;51140;45.340;5.980;2023-01-31T05:51:08;99230.53;;;-0.51;100.00
64713;BME280;51140;45.340;5.980;2023-01-31T05:53:33;99235.59;;;-0.56;100.00
64713;BME280;51140;45.340;5.980;2023-01-31T05:55:58;99244.88;;;-0.67;100.00
64713;BME280;51140;45.340;5.980;2023-01-31T05:58:24;99248.09;;;-0.82;100.00
64713;BME280;51140;45.340;5.980;2023-01-31T06:00:49;99259.94;;;-0.91;100.00
64713;BME280;51140;45.340;5.980;2023-01-31T06:03:14;99255.63;;;-0.96;100.00
64713;BME280;51140;45.340;5.980;2023-01-31T06:05:40;99275.16;;;-1.04;100.00
64713;BME280;51140;45.340;5.980;2023-01-31T06:08:05;99284.44;;;-1.10;100.00
64713;BME280;51140;45.340;5.980;2023-01-31T06:10:31;99282.75;;;-1.08;100.00
64713;BME280;51140;45.340;5.980;2023-01-31T06:12:56;99295.50;;;-1.11;100.00
64713;BME280;51140;45.340;5.980;2023-01-31T06:15:22;99295.41;;;-1.19;100.00
64713;BME280;51140;45.340;5.980;2023-01-31T06:17:47;99305.56;;;-1.22;100.00
64713;BME280;51140;45.340;5.980;2023-01-31T06:20:13;99324.25;;;-1.26;100.00
64713;BME280;51140;45.340;5.980;2023-01-31T06:22:38;99334.50;;;-1.24;100.00
64713;BME280;51140;45.340;5.980;2023-01-31T06:25:05;99329.41;;;-1.23;100.00
64713;BME280;51140;45.340;5.980;2023-01-31T06:27:31;99336.31;;;-1.19;100.00
64713;BME280;51140;45.340;5.980;2023-01-31T06:29:57;99341.50;;;-1.14;100.00
64713;BME280;51140;45.340;5.980;2023-01-31T06:32:22;99334.72;;;-1.12;100.00
64713;BME280;51140;45.340;5.980;2023-01-31T06:34:48;99330.47;;;-1.10;100.00
64713;BME280;51140;45.340;5.980;2023-01-31T06:37:13;99333.81;;;-1.14;100.00
64713;BME280;51140;45.340;5.980;2023-01-31T06:39:38;99340.66;;;-1.13;100.00
64713;BME280;51140;45.340;5.980;2023-01-31T06:42:04;99344.19;;;-1.04;100.00
64713;BME280;51140;45.340;5.980;2023-01-31T06:44:29;99342.59;;;-0.96;100.00
64713;BME280;51140;45.340;5.980;2023-01-31T06:46:57;99337.50;;;-0.92;100.00
64713;BME280;51140;45.340;5.980;2023-01-31T06:49:23;99335.78;;;-0.95;100.00
64713;BME280;51140;45.340;5.980;2023-01-31T06:51:48;99340.00;;;-0.97;100.00
64713;BME280;51140;45.340;5.980;2023-01-31T06:54:13;99333.25;;;-0.92;100.00
64713;BME280;51140;45.340;5.980;2023-01-31T06:56:39;99329.88;;;-0.89;100.00
64713;BME280;51140;45.340;5.980;2023-01-31T06:59:04;99329.94;;;-0.85;100.00
64713;BME280;51140;45.340;5.980;2023-01-31T07:01:29;99326.63;;;-0.79;100.00
64713;BME280;51140;45.340;5.980;2023-01-31T07:03:55;99313.78;;;-0.81;100.00
64713;BME280;51140;45.340;5.980;2023-01-31T07:06:20;99309.59;;;-0.77;100.00
64713;BME280;51140;45.340;5.980;2023-01-31T07:08:47;99310.41;;;-0.80;100.00
64713;BME280;51140;45.340;5.980;2023-01-31T07:11:12;99321.53;;;-0.76;100.00
64713;BME280;51140;45.340;5.980;2023-01-31T07:13:37;99311.38;;;-0.70;100.00
64713;BME280;51140;45.340;5.980;2023-01-31T07:16:03;99303.72;;;-0.67;100.00
64713;BME280;51140;45.340;5.980;2023-01-31T07:18:28;99325.13;;;-0.62;100.00
64713;BME280;51140;45.340;5.980;2023-01-31T07:20:54;99332.81;;;-0.60;100.00
64713;BME280;51140;45.340;5.980;2023-01-31T07:23:19;99341.34;;;-0.58;100.00
64713;BME280;51140;45.340;5.980;2023-01-31T07:25:44;99335.41;;;-0.57;100.00
64713;BME280;51140;45.340;5.980;2023-01-31T07:28:10;99355.84;;;-0.59;100.00
64713;BME280;51140;45.340;5.980;2023-01-31T07:30:36;99366.06;;;-0.60;100.00
64713;BME280;51140;45.340;5.980;2023-01-31T07:33:01;99372.06;;;-0.58;100.00
64713;BME280;51140;45.340;5.980;2023-01-31T07:35:27;99368.66;;;-0.59;100.00
64713;BME280;51140;45.340;5.980;2023-01-31T07:37:53;99369.47;;;-0.63;100.00
64713;BME280;51140;45.340;5.980;2023-01-31T07:40:19;99377.16;;;-0.60;100.00
64713;BME280;51140;45.340;5.980;2023-01-31T07:42:44;99385.72;;;-0.59;100.00
64713;BME280;51140;45.340;5.980;2023-01-31T07:45:11;99388.38;;;-0.50;100.00
64713;BME280;51140;45.340;5.980;2023-01-31T07:47:37;99367.22;;;-0.37;100.00
64713;BME280;51140;45.340;5.980;2023-01-31T07:50:03;99363.84;;;-0.33;100.00
64713;BME280;51140;45.340;5.980;2023-01-31T07:52:30;99349.34;;;-0.34;100.00
64713;BME280;51140;45.340;5.980;2023-01-31T07:54:55;99363.16;;;-0.18;100.00
64713;BME280;51140;45.340;5.980;2023-01-31T07:57:21;99357.34;;;-0.01;100.00
64713;BME280;51140;45.340;5.980;2023-01-31T07:59:46;99366.78;;;0.02;100.00
64713;BME280;51140;45.340;5.980;2023-01-31T08:02:13;99358.31;;;0.08;100.00
64713;BME280;51140;45.340;5.980;2023-01-31T08:04:57;99328.59;;;0.31;100.00
64713;BME280;51140;45.340;5.980;2023-01-31T08:07:22;99315.94;;;0.49;100.00
64713;BME280;51140;45.340;5.980;2023-01-31T08:09:48;99303.97;;;0.48;100.00
64713;BME280;51140;45.340;5.980;2023-01-31T08:12:14;99288.63;;;0.54;100.00
64713;BME280;51140;45.340;5.980;2023-01-31T08:14:40;99292.03;;;0.53;100.00
64713;BME280;51140;45.340;5.980;2023-01-31T08:17:05;99292.06;;;0.59;100.00
64713;BME280;51140;45.340;5.980;2023-01-31T08:19:32;99296.38;;;0.67;100.00
64713;BME280;51140;45.340;5.980;2023-01-31T08:21:59;99289.59;;;0.78;100.00
64713;BME280;51140;45.340;5.980;2023-01-31T08:24:24;99272.59;;;0.90;100.00
64713;BME280;51140;45.340;5.980;2023-01-31T08:26:50;99267.53;;;1.07;100.00
64713;BME280;51140;45.340;5.980;2023-01-31T08:29:15;99269.34;;;1.30;100.00
64713;BME280;51140;45.340;5.980;2023-01-31T08:31:41;99254.81;;;1.33;100.00
64713;BME280;51140;45.340;5.980;2023-01-31T08:34:07;99243.66;;;1.27;100.00
64713;BME280;51140;45.340;5.980;2023-01-31T08:36:32;99237.69;;;1.35;100.00
64713;BME280;51140;45.340;5.980;2023-01-31T08:38:58;99222.25;;;1.21;100.00
64713;BME280;51140;45.340;5.980;2023-01-31T08:41:25;99225.72;;;1.34;100.00
64713;BME280;51140;45.340;5.980;2023-01-31T08:43:51;99221.44;;;1.47;100.00
64713;BME280;51140;45.340;5.980;2023-01-31T08:46:17;99216.38;;;1.68;100.00
64713;BME280;51140;45.340;5.980;2023-01-31T08:48:43;99211.22;;;1.83;100.00
64713;BME280;51140;45.340;5.980;2023-01-31T08:51:10;99204.38;;;1.92;100.00
64713;BME280;51140;45.340;5.980;2023-01-31T08:53:40;99194.94;;;1.87;100.00
64713;BME280;51140;45.340;5.980;2023-01-31T08:56:08;99197.53;;;1.84;100.00
64713;BME280;51140;45.340;5.980;2023-01-31T08:58:35;99200.09;;;2.01;100.00
64713;BME280;51140;45.340;5.980;2023-01-31T09:01:10;99197.50;;;1.95;100.00
64713;BME280;51140;45.340;5.980;2023-01-31T09:03:36;99200.06;;;2.27;100.00
64713;BME280;51140;45.340;5.980;2023-01-31T09:06:03;99192.34;;;2.27;100.00
64713;BME280;51140;45.340;5.980;2023-01-31T09:08:29;99182.94;;;2.23;100.00
64713;BME280;51140;45.340;5.980;2023-01-31T09:10:56;99182.09;;;2.10;100.00
64713;BME280;51140;45.340;5.980;2023-01-31T09:13:22;99182.94;;;2.18;100.00
64713;BME280;51140;45.340;5.980;2023-01-31T09:15:59;99187.22;;;2.16;100.00
64713;BME280;51140;45.340;5.980;2023-01-31T09:18:26;99188.97;;;1.85;100.00
64713;BME280;51140;45.340;5.980;2023-01-31T09:20:52;99194.09;;;1.81;100.00
64713;BME280;51140;45.340;5.980;2023-01-31T09:23:18;99206.00;;;1.21;100.00
64713;BME280;51140;45.340;5.980;2023-01-31T09:25:50;99221.25;;;0.83;100.00
64713;BME280;51140;45.340;5.980;2023-01-31T09:28:16;99238.31;;;0.75;100.00
64713;BME280;51140;45.340;5.980;2023-01-31T09:30:41;99251.06;;;0.59;100.00
64713;BME280;51140;45.340;5.980;2023-01-31T09:33:07;99265.53;;;0.53;100.00
64713;BME280;51140;45.340;5.980;2023-01-31T09:35:32;99270.63;;;0.44;100.00
64713;BME280;51140;45.340;5.980;2023-01-31T09:37:57;99289.16;;;0.11;100.00
64713;BME280;51140;45.340;5.980;2023-01-31T09:40:31;99298.50;;;0.04;100.00
64713;BME280;51140;45.340;5.980;2023-01-31T09:42:58;99302.03;;;0.18;100.00
64713;BME280;51140;45.340;5.980;2023-01-31T09:45:34;99312.31;;;0.24;100.00
64713;BME280;51140;45.340;5.980;2023-01-31T09:48:04;99316.78;;;0.45;100.00
64713;BME280;51140;45.340;5.980;2023-01-31T09:50:46;99309.31;;;0.80;100.00
64713;BME280;51140;45.340;5.980;2023-01-31T09:53:15;99299.84;;;0.72;100.00
64713;BME280;51140;45.340;5.980;2023-01-31T09:56:08;99301.56;;;0.74;100.00
64713;BME280;51140;45.340;5.980;2023-01-31T09:58:55;99308.41;;;0.75;100.00
64713;BME280;51140;45.340;5.980;2023-01-31T10:04:31;99309.06;;;0.45;100.00
64713;BME280;51140;45.340;5.980;2023-01-31T10:09:59;99320.94;;;0.36;100.00
64713;BME280;51140;45.340;5.980;2023-01-31T10:12:32;99332.03;;;0.33;100.00
64713;BME280;51140;45.340;5.980;2023-01-31T10:15:12;99336.28;;;0.31;100.00
64713;BME280;51140;45.340;5.980;2023-01-31T10:17:46;99333.75;;;0.37;100.00
64713;BME280;51140;45.340;5.980;2023-01-31T10:20:21;99334.03;;;0.74;100.00
64713;BME280;51140;45.340;5.980;2023-01-31T10:23:03;99312.16;;;1.46;100.00
64713;BME280;51140;45.340;5.980;2023-01-31T10:28:50;99241.19;;;2.33;100.00
64713;BME280;51140;45.340;5.980;2023-01-31T10:31:37;99219.69;;;2.62;100.00
64713;BME280;51140;45.340;5.980;2023-01-31T10:37:12;99183.31;;;3.41;100.00
64713;BME280;51140;45.340;5.980;2023-01-31T10:40:40;99167.75;;;3.53;100.00
64713;BME280;51140;45.340;5.980;2023-01-31T10:43:36;99159.84;;;3.81;100.00
64713;BME280;51140;45.340;5.980;2023-01-31T10:46:08;99162.44;;;3.77;100.00
64713;BME280;51140;45.340;5.980;2023-01-31T10:48:34;99154.63;;;3.87;100.00
64713;BME280;51140;45.340;5.980;2023-01-31T10:54:13;99135.19;;;4.41;100.00
64713;BME280;51140;45.340;5.980;2023-01-31T10:56:41;99125.72;;;4.40;100.00
64713;BME280;51140;45.340;5.980;2023-01-31T10:59:17;99122.28;;;4.43;100.00
64713;BME280;51140;45.340;5.980;2023-01-31T11:01:45;99111.88;;;4.49;100.00
64713;BME280;51140;45.340;5.980;2023-01-31T11:04:29;99100.50;;;4.63;100.00
64713;BME280;51140;45.340;5.980;2023-01-31T11:06:57;99106.56;;;4.61;100.00
64713;BME280;51140;45.340;5.980;2023-01-31T11:09:28;99101.19;;;4.76;100.00
64713;BME280;51140;45.340;5.980;2023-01-31T11:12:00;99093.75;;;4.53;100.00
64713;BME280;51140;45.340;5.980;2023-01-31T11:14:26;99091.38;;;4.35;100.00
64713;BME280;51140;45.340;5.980;2023-01-31T11:17:04;99087.06;;;4.37;100.00
64713;BME280;51140;45.340;5.980;2023-01-31T11:19:40;99073.22;;;4.46;100.00
64713;BME280;51140;45.340;5.980;2023-01-31T11:22:19;99060.31;;;4.47;100.00
64713;BME280;51140;45.340;5.980;2023-01-31T11:24:46;99071.97;;;4.74;100.00
64713;BME280;51140;45.340;5.980;2023-01-31T11:27:23;99065.97;;;4.72;100.00
64713;BME280;51140;45.340;5.980;2023-01-31T11:29:50;99059.69;;;4.91;100.00
64713;BME280;51140;45.340;5.980;2023-01-31T11:32:25;99045.94;;;4.91;100.00
64713;BME280;51140;45.340;5.980;2023-01-31T11:34:56;99036.75;;;5.28;100.00
64713;BME280;51140;45.340;5.980;2023-01-31T11:37:22;99029.44;;;5.53;100.00
64713;BME280;51140;45.340;5.980;2023-01-31T11:40:02;99026.00;;;5.53;100.00
64713;BME280;51140;45.340;5.980;2023-01-31T11:42:28;99014.59;;;5.64;100.00
64713;BME280;51140;45.340;5.980;2023-01-31T11:45:15;99019.44;;;5.83;100.00
64713;BME280;51140;45.340;5.980;2023-01-31T11:47:52;99006.38;;;5.89;100.00
64713;BME280;51140;45.340;5.980;2023-01-31T11:50:32;99007.78;;;6.08;100.00
64713;BME280;51140;45.340;5.980;2023-01-31T11:53:03;98990.94;;;6.29;100.00
64713;BME280;51140;45.340;5.980;2023-01-31T11:55:38;98991.63;;;6.37;100.00
64713;BME280;51140;45.340;5.980;2023-01-31T11:58:16;98982.56;;;6.58;100.00
64713;BME280;51140;45.340;5.980;2023-01-31T12:01:04;98974.59;;;6.67;100.00
64713;BME280;51140;45.340;5.980;2023-01-31T12:03:31;98969.00;;;7.19;100.00
64713;BME280;51140;45.340;5.980;2023-01-31T12:06:02;98974.41;;;7.46;100.00
64713;BME280;51140;45.340;5.980;2023-01-31T12:08:30;98979.53;;;7.80;100.00
64713;BME280;51140;45.340;5.980;2023-01-31T12:10:58;98995.34;;;8.03;100.00
64713;BME280;51140;45.340;5.980;2023-01-31T12:13:24;98995.38;;;8.02;100.00
64713;BME280;51140;45.340;5.980;2023-01-31T12:15:54;99003.13;;;7.03;100.00
64713;BME280;51140;45.340;5.980;2023-01-31T12:21:02;99070.25;;;11.92;100.00
64713;BME280;51140;45.340;5.980;2023-01-31T12:26:06;99325.47;;;14.29;100.00
64713;BME280;51140;45.340;5.980;2023-01-31T12:28:45;99431.72;;;15.10;100.00
64713;BME280;51140;45.340;5.980;2023-01-31T12:41:35;99429.38;;;13.33;100.00
64713;BME280;51140;45.340;5.980;2023-01-31T12:49:43;99212.00;;;9.47;100.00
64713;BME280;51140;45.340;5.980;2023-01-31T13:01:32;99019.00;;;7.59;100.00
64713;BME280;51140;45.340;5.980;2023-01-31T13:03:35;98987.78;;;6.94;100.00
64713;BME280;51140;45.340;5.980;2023-01-31T13:06:07;98976.09;;;6.76;100.00
64713;BME280;51140;45.340;5.980;2023-01-31T13:08:42;98942.31;;;6.82;100.00
64713;BME280;51140;45.340;5.980;2023-01-31T13:11:23;98918.88;;;6.88;100.00
64713;BME280;51140;45.340;5.980;2023-01-31T13:13:55;98922.47;;;6.82;100.00
64713;BME280;51140;45.340;5.980;2023-01-31T13:16:25;98913.00;;;6.81;100.00
64713;BME280;51140;45.340;5.980;2023-01-31T13:18:55;98918.47;;;6.68;100.00
64713;BME280;51140;45.340;5.980;2023-01-31T13:21:29;98909.81;;;6.69;100.00
64713;BME280;51140;45.340;5.980;2023-01-31T13:24:02;98920.00;;;6.76;100.00
64713;BME280;51140;45.340;5.980;2023-01-31T13:26:32;98924.50;;;6.68;100.00
64713;BME280;51140;45.340;5.980;2023-01-31T13:29:06;98920.06;;;6.73;100.00
64713;BME280;51140;45.340;5.980;2023-01-31T13:31:55;98925.97;;;6.78;100.00
64713;BME280;51140;45.340;5.980;2023-01-31T13:34:43;98926.78;;;6.82;100.00
64713;BME280;51140;45.340;5.980;2023-01-31T13:37:15;98922.44;;;6.84;100.00
64713;BME280;51140;45.340;5.980;2023-01-31T13:39:50;98914.63;;;6.85;100.00
64713;BME280;51140;45.340;5.980;2023-01-31T13:42:16;98920.25;;;6.66;100.00
64713;BME280;51140;45.340;5.980;2023-01-31T13:44:43;98918.22;;;6.78;100.00
64713;BME280;51140;45.340;5.980;2023-01-31T13:47:22;98919.06;;;6.79;100.00
64713;BME280;51140;45.340;5.980;2023-01-31T13:52:23;98912.19;;;6.78;100.00
64713;BME280;51140;45.340;5.980;2023-01-31T13:54:52;98916.41;;;6.83;100.00
64713;BME280;51140;45.340;5.980;2023-01-31T13:57:31;98916.47;;;6.79;100.00
64713;BME280;51140;45.340;5.980;2023-01-31T14:00:07;98928.66;;;6.75;100.00
64713;BME280;51140;45.340;5.980;2023-01-31T14:02:34;98924.44;;;6.71;100.00
64713;BME280;51140;45.340;5.980;2023-01-31T14:11:01;98904.03;;;6.95;100.00
64713;BME280;51140;45.340;5.980;2023-01-31T14:13:40;98908.53;;;6.86;100.00
64713;BME280;51140;45.340;5.980;2023-01-31T14:16:45;98896.81;;;6.72;100.00
64713;BME280;51140;45.340;5.980;2023-01-31T14:35:23;98879.41;;;6.77;100.00
64713;BME280;51140;45.340;5.980;2023-01-31T14:40:55;98897.38;;;6.84;100.00
64713;BME280;51140;45.340;5.980;2023-01-31T14:46:41;98897.25;;;6.89;100.00